createdAt,value
2022-12-23T00:01:31.372Z,955.05
2022-12-23T00:02:31.435Z,955.1
2022-12-23T00:03:31.313Z,955.04
2022-12-23T00:05:35.898Z,955.08
2022-12-23T00:06:31.408Z,955.1
2022-12-23T00:07:31.370Z,955.2
2022-12-23T00:08:31.261Z,955.17
2022-12-23T00:09:31.255Z,955.16
2022-12-23T00:10:31.379Z,955.2
2022-12-23T00:12:31.293Z,955.22
2022-12-23T00:13:31.265Z,955.15
2022-12-23T00:14:31.251Z,955.12
2022-12-23T00:15:31.313Z,955.08
2022-12-23T00:16:31.416Z,955.13
2022-12-23T00:17:31.356Z,955.1
2022-12-23T00:19:31.380Z,955.12
2022-12-23T00:20:31.342Z,955.15
2022-12-23T00:21:32.655Z,955.11
2022-12-23T00:22:31.278Z,955.16
2022-12-23T00:23:31.354Z,955.13
2022-12-23T00:24:31.426Z,955.19
2022-12-23T00:25:31.293Z,955.13
2022-12-23T00:26:31.295Z,955.08
2022-12-23T00:27:35.764Z,955.02
2022-12-23T00:28:31.526Z,955.04
2022-12-23T00:29:31.300Z,955.02
2022-12-23T00:30:31.411Z,955.07
2022-12-23T00:31:31.429Z,955.03
2022-12-23T00:32:31.310Z,955.02
2022-12-23T00:33:31.297Z,955.06
2022-12-23T00:34:31.383Z,955.02
2022-12-23T00:35:31.472Z,955.03
2022-12-23T00:36:31.484Z,955.05
2022-12-23T00:37:31.323Z,955.02
2022-12-23T00:38:31.415Z,954.98
2022-12-23T00:40:31.656Z,955.03
2022-12-23T00:41:31.533Z,955.01
2022-12-23T00:42:31.434Z,955.03
2022-12-23T00:44:31.501Z,955
2022-12-23T00:45:31.457Z,955.11
2022-12-23T00:46:31.443Z,955.05
2022-12-23T00:47:31.528Z,955.09
2022-12-23T00:48:31.454Z,955.05
2022-12-23T00:49:31.343Z,954.99
2022-12-23T00:50:31.541Z,955
2022-12-23T00:51:31.473Z,954.95
2022-12-23T00:54:31.461Z,954.93
2022-12-23T00:55:31.427Z,954.9
2022-12-23T00:56:31.370Z,954.88
2022-12-23T00:57:31.459Z,955.02
2022-12-23T00:58:31.424Z,955.05
2022-12-23T00:59:31.507Z,955.03
2022-12-23T01:00:31.470Z,955.01
2022-12-23T01:01:31.838Z,954.98
2022-12-23T01:02:31.512Z,955
2022-12-23T01:03:31.491Z,955.02
2022-12-23T01:04:31.431Z,955.03
2022-12-23T01:05:31.442Z,955.02
2022-12-23T01:06:31.500Z,955.09
2022-12-23T01:07:31.553Z,955.06
2022-12-23T01:08:31.431Z,955.11
2022-12-23T01:09:31.468Z,955.07
2022-12-23T01:10:32.945Z,955.04
2022-12-23T01:11:31.468Z,955.02
2022-12-23T01:12:31.492Z,955.01
2022-12-23T01:13:32.458Z,955
2022-12-23T01:14:31.576Z,955.04
2022-12-23T01:16:31.719Z,955.05
2022-12-23T01:17:31.578Z,955.06
2022-12-23T01:18:31.482Z,955.03
2022-12-23T01:19:31.458Z,955.08
2022-12-23T01:21:31.506Z,955.09
2022-12-23T01:22:32.501Z,955.12
2022-12-23T01:24:31.498Z,955.08
2022-12-23T01:25:31.567Z,955.12
2022-12-23T01:26:31.550Z,955.09
2022-12-23T01:27:31.493Z,955.16
2022-12-23T01:28:32.553Z,955.09
2022-12-23T01:29:31.545Z,955.12
2022-12-23T01:31:31.799Z,955.09
2022-12-23T01:32:31.457Z,955.07
2022-12-23T01:33:31.511Z,955.12
2022-12-23T01:34:36.585Z,955.14
2022-12-23T01:36:31.638Z,955.18
2022-12-23T01:37:32.612Z,955.17
2022-12-23T01:38:31.557Z,955.24
2022-12-23T01:39:31.524Z,955.28
2022-12-23T01:40:31.580Z,955.33
2022-12-23T01:41:31.601Z,955.37
2022-12-23T01:42:31.523Z,955.32
2022-12-23T01:43:31.606Z,955.29
2022-12-23T01:44:31.604Z,955.34
2022-12-23T01:46:31.751Z,955.32
2022-12-23T01:47:31.615Z,955.39
2022-12-23T01:48:31.643Z,955.32
2022-12-23T01:49:31.609Z,955.35
2022-12-23T01:50:31.487Z,955.4
2022-12-23T01:51:31.669Z,955.45
2022-12-23T01:52:31.614Z,955.41
2022-12-23T01:53:31.521Z,955.4
2022-12-23T01:55:31.619Z,955.39
2022-12-23T01:56:31.604Z,955.42
2022-12-23T01:58:31.605Z,955.39
2022-12-23T01:59:31.566Z,955.42
2022-12-23T02:00:31.646Z,955.44
2022-12-23T02:01:31.719Z,955.41
2022-12-23T02:02:31.880Z,955.42
2022-12-23T02:03:31.715Z,955.5
2022-12-23T02:05:31.578Z,955.51
2022-12-23T02:06:31.668Z,955.46
2022-12-23T02:07:31.524Z,955.49
2022-12-23T02:08:31.639Z,955.47
2022-12-23T02:09:31.650Z,955.49
2022-12-23T02:10:31.564Z,955.51
2022-12-23T02:11:31.699Z,955.44
2022-12-23T02:12:31.534Z,955.46
2022-12-23T02:13:31.553Z,955.47
2022-12-23T02:14:31.563Z,955.44
2022-12-23T02:15:31.558Z,955.43
2022-12-23T02:16:31.600Z,955.47
2022-12-23T02:17:31.709Z,955.44
2022-12-23T02:19:31.719Z,955.49
2022-12-23T02:20:35.897Z,955.52
2022-12-23T02:21:31.684Z,955.48
2022-12-23T02:22:31.646Z,955.46
2022-12-23T02:23:32.899Z,955.44
2022-12-23T02:24:31.585Z,955.46
2022-12-23T02:25:31.575Z,955.49
2022-12-23T02:26:31.567Z,955.46
2022-12-23T02:27:31.703Z,955.48
2022-12-23T02:29:32.904Z,955.44
2022-12-23T02:31:31.902Z,955.43
2022-12-23T02:32:31.605Z,955.49
2022-12-23T02:33:31.594Z,955.5
2022-12-23T02:35:31.838Z,955.49
2022-12-23T02:36:31.691Z,955.53
2022-12-23T02:37:31.615Z,955.51
2022-12-23T02:38:31.732Z,955.53
2022-12-23T02:39:31.713Z,955.52
2022-12-23T02:40:31.661Z,955.54
2022-12-23T02:41:31.730Z,955.58
2022-12-23T02:43:31.642Z,955.56
2022-12-23T02:45:31.711Z,955.51
2022-12-23T02:46:31.749Z,955.55
2022-12-23T02:47:31.742Z,955.53
2022-12-23T02:48:31.722Z,955.52
2022-12-23T02:49:31.629Z,955.48
2022-12-23T02:50:31.629Z,955.54
2022-12-23T02:51:31.640Z,955.56
2022-12-23T02:52:31.646Z,955.49
2022-12-23T02:53:31.647Z,955.5
2022-12-23T02:54:31.708Z,955.49
2022-12-23T02:55:31.628Z,955.43
2022-12-23T02:56:31.757Z,955.42
2022-12-23T02:57:31.642Z,955.39
2022-12-23T02:58:31.682Z,955.42
2022-12-23T02:59:31.751Z,955.38
2022-12-23T03:00:31.713Z,955.41
2022-12-23T03:02:31.869Z,955.48
2022-12-23T03:03:31.781Z,955.47
2022-12-23T03:04:33.117Z,955.5
2022-12-23T03:05:31.673Z,955.51
2022-12-23T03:07:31.814Z,955.57
2022-12-23T03:08:31.788Z,955.59
2022-12-23T03:09:31.726Z,955.58
2022-12-23T03:10:31.809Z,955.52
2022-12-23T03:12:31.761Z,955.51
2022-12-23T03:13:31.813Z,955.48
2022-12-23T03:14:31.794Z,955.47
2022-12-23T03:15:31.774Z,955.48
2022-12-23T03:16:31.704Z,955.47
2022-12-23T03:17:31.715Z,955.53
2022-12-23T03:18:31.704Z,955.52
2022-12-23T03:19:31.701Z,955.56
2022-12-23T03:21:31.705Z,955.6
2022-12-23T03:22:31.821Z,955.59
2022-12-23T03:23:31.705Z,955.66
2022-12-23T03:24:31.867Z,955.64
2022-12-23T03:26:31.794Z,955.62
2022-12-23T03:29:31.813Z,955.58
2022-12-23T03:30:31.740Z,955.54
2022-12-23T03:32:31.805Z,955.55
2022-12-23T03:35:31.807Z,955.53
2022-12-23T03:36:31.878Z,955.49
2022-12-23T03:37:31.844Z,955.52
2022-12-23T03:39:31.909Z,955.48
2022-12-23T03:40:31.743Z,955.47
2022-12-23T03:41:31.950Z,955.54
2022-12-23T03:42:31.776Z,955.53
2022-12-23T03:43:31.847Z,955.54
2022-12-23T03:44:31.827Z,955.58
2022-12-23T03:45:40.262Z,955.59
2022-12-23T03:46:32.010Z,955.61
2022-12-23T03:47:31.839Z,955.65
2022-12-23T03:49:31.862Z,955.64
2022-12-23T03:50:31.826Z,955.61
2022-12-23T03:51:31.798Z,955.53
2022-12-23T03:52:31.786Z,955.54
2022-12-23T03:53:31.929Z,955.53
2022-12-23T03:54:31.896Z,955.57
2022-12-23T03:55:31.871Z,955.52
2022-12-23T03:56:31.796Z,955.53
2022-12-23T03:57:31.907Z,955.48
2022-12-23T03:58:31.782Z,955.45
2022-12-23T03:59:31.941Z,955.43
2022-12-23T04:00:31.906Z,955.44
2022-12-23T04:02:32.045Z,955.47
2022-12-23T04:04:31.819Z,955.43
2022-12-23T04:06:31.914Z,955.47
2022-12-23T04:07:31.883Z,955.44
2022-12-23T04:08:31.965Z,955.38
2022-12-23T04:09:31.911Z,955.43
2022-12-23T04:11:31.873Z,955.39
2022-12-23T04:12:31.919Z,955.41
2022-12-23T04:13:31.854Z,955.37
2022-12-23T04:14:31.847Z,955.42
2022-12-23T04:15:31.834Z,955.39
2022-12-23T04:16:32.088Z,955.44
2022-12-23T04:17:31.969Z,955.45
2022-12-23T04:18:31.867Z,955.42
2022-12-23T04:19:31.962Z,955.47
2022-12-23T04:20:31.864Z,955.4
2022-12-23T04:21:31.878Z,955.42
2022-12-23T04:22:33.076Z,955.4
2022-12-23T04:23:31.987Z,955.43
2022-12-23T04:24:31.939Z,955.42
2022-12-23T04:25:33.088Z,955.37
2022-12-23T04:26:31.861Z,955.42
2022-12-23T04:27:31.890Z,955.38
2022-12-23T04:28:31.869Z,955.37
2022-12-23T04:29:31.988Z,955.36
2022-12-23T04:30:34.182Z,955.37
2022-12-23T04:31:33.169Z,955.38
2022-12-23T04:32:31.985Z,955.34
2022-12-23T04:34:31.917Z,955.32
2022-12-23T04:35:31.986Z,955.34
2022-12-23T04:36:31.972Z,955.32
2022-12-23T04:37:32.029Z,955.35
2022-12-23T04:38:31.885Z,955.36
2022-12-23T04:39:32.039Z,955.32
2022-12-23T04:40:33.204Z,955.37
2022-12-23T04:41:31.999Z,955.36
2022-12-23T04:42:31.980Z,955.35
2022-12-23T04:43:31.890Z,955.31
2022-12-23T04:44:32.010Z,955.34
2022-12-23T04:45:31.966Z,955.32
2022-12-23T04:46:32.074Z,955.35
2022-12-23T04:47:31.932Z,955.37
2022-12-23T04:48:33.260Z,955.35
2022-12-23T04:50:31.921Z,955.36
2022-12-23T04:51:31.915Z,955.38
2022-12-23T04:52:31.932Z,955.39
2022-12-23T04:54:31.984Z,955.45
2022-12-23T04:55:32.051Z,955.48
2022-12-23T04:56:31.953Z,955.53
2022-12-23T04:58:32.062Z,955.55
2022-12-23T04:59:31.951Z,955.56
2022-12-23T05:00:37.271Z,955.58
2022-12-23T05:01:32.199Z,955.61
2022-12-23T05:02:32.062Z,955.63
2022-12-23T05:03:31.979Z,955.58
2022-12-23T05:05:32.028Z,955.62
2022-12-23T05:06:33.367Z,955.59
2022-12-23T05:07:31.953Z,955.6
2022-12-23T05:08:32.039Z,955.63
2022-12-23T05:09:33.385Z,955.6
2022-12-23T05:10:32.071Z,955.62
2022-12-23T05:11:34.964Z,955.65
2022-12-23T05:12:32.101Z,955.66
2022-12-23T05:13:32.072Z,955.61
2022-12-23T05:15:32.021Z,955.67
2022-12-23T05:16:32.173Z,955.57
2022-12-23T05:17:32.055Z,955.64
2022-12-23T05:18:31.993Z,955.59
2022-12-23T05:19:32.120Z,955.57
2022-12-23T05:21:32.011Z,955.51
2022-12-23T05:22:32.013Z,955.49
2022-12-23T05:23:32.071Z,955.52
2022-12-23T05:24:32.132Z,955.47
2022-12-23T05:25:31.996Z,955.5
2022-12-23T05:26:32.099Z,955.45
2022-12-23T05:27:32.005Z,955.44
2022-12-23T05:28:32.011Z,955.43
2022-12-23T05:29:32.013Z,955.36
2022-12-23T05:30:32.026Z,955.42
2022-12-23T05:31:32.103Z,955.41
2022-12-23T05:32:33.003Z,955.4
2022-12-23T05:33:32.165Z,955.41
2022-12-23T05:34:32.022Z,955.39
2022-12-23T05:35:32.099Z,955.33
2022-12-23T05:36:32.148Z,955.37
2022-12-23T05:37:32.045Z,955.42
2022-12-23T05:38:32.040Z,955.44
2022-12-23T05:39:32.082Z,955.43
2022-12-23T05:40:32.769Z,955.44
2022-12-23T05:41:32.101Z,955.43
2022-12-23T05:42:32.161Z,955.45
2022-12-23T05:43:32.115Z,955.47
2022-12-23T05:44:32.133Z,955.46
2022-12-23T05:45:32.169Z,955.45
2022-12-23T05:46:32.146Z,955.49
2022-12-23T05:47:32.048Z,955.47
2022-12-23T05:48:32.050Z,955.5
2022-12-23T05:49:32.077Z,955.54
2022-12-23T05:50:32.202Z,955.51
2022-12-23T05:51:32.165Z,955.53
2022-12-23T05:52:32.071Z,955.54
2022-12-23T05:53:32.082Z,955.55
2022-12-23T05:54:32.157Z,955.53
2022-12-23T05:56:32.345Z,955.52
2022-12-23T05:57:32.174Z,955.51
2022-12-23T05:58:33.189Z,955.5
2022-12-23T05:59:33.174Z,955.53
2022-12-23T06:00:32.184Z,955.52
2022-12-23T06:01:32.368Z,955.53
2022-12-23T06:02:32.338Z,955.54
2022-12-23T06:03:32.285Z,955.53
2022-12-23T06:04:33.216Z,955.49
2022-12-23T06:05:32.215Z,955.51
2022-12-23T06:06:32.169Z,955.53
2022-12-23T06:07:32.130Z,955.52
2022-12-23T06:09:32.116Z,955.49
2022-12-23T06:10:32.256Z,955.47
2022-12-23T06:11:32.221Z,955.41
2022-12-23T06:12:32.231Z,955.43
2022-12-23T06:14:32.226Z,955.44
2022-12-23T06:15:32.356Z,955.43
2022-12-23T06:17:32.232Z,955.45
2022-12-23T06:18:32.127Z,955.43
2022-12-23T06:19:32.156Z,955.39
2022-12-23T06:20:32.235Z,955.46
2022-12-23T06:21:32.222Z,955.51
2022-12-23T06:22:32.269Z,955.56
2022-12-23T06:23:32.232Z,955.57
2022-12-23T06:24:32.141Z,955.61
2022-12-23T06:25:32.190Z,955.65
2022-12-23T06:26:32.246Z,955.64
2022-12-23T06:27:32.200Z,955.68
2022-12-23T06:28:32.175Z,955.67
2022-12-23T06:29:32.253Z,955.66
2022-12-23T06:30:32.215Z,955.71
2022-12-23T06:31:32.263Z,955.75
2022-12-23T06:34:32.340Z,955.74
2022-12-23T06:35:32.189Z,955.73
2022-12-23T06:36:33.432Z,955.78
2022-12-23T06:37:32.281Z,955.77
2022-12-23T06:38:32.260Z,955.75
2022-12-23T06:39:33.450Z,955.76
2022-12-23T06:40:32.290Z,955.67
2022-12-23T06:41:32.259Z,955.68
2022-12-23T06:42:32.336Z,955.6
2022-12-23T06:43:32.292Z,955.63
2022-12-23T06:44:32.260Z,955.61
2022-12-23T06:45:32.375Z,955.63
2022-12-23T06:46:32.345Z,955.58
2022-12-23T06:47:32.267Z,955.56
2022-12-23T06:48:33.490Z,955.58
2022-12-23T06:49:32.317Z,955.64
2022-12-23T06:50:32.274Z,955.69
2022-12-23T06:51:32.164Z,955.7
2022-12-23T06:52:32.301Z,955.74
2022-12-23T06:55:32.222Z,955.75
2022-12-23T06:56:32.213Z,955.77
2022-12-23T06:57:32.205Z,955.75
2022-12-23T06:58:32.307Z,955.77
2022-12-23T06:59:32.404Z,955.75
2022-12-23T07:00:32.347Z,955.74
2022-12-23T07:01:32.450Z,955.77
2022-12-23T07:02:32.449Z,955.76
2022-12-23T07:03:32.390Z,955.77
2022-12-23T07:05:36.890Z,955.75
2022-12-23T07:06:32.559Z,955.76
2022-12-23T07:07:32.323Z,955.74
2022-12-23T07:08:32.297Z,955.72
2022-12-23T07:09:32.248Z,955.8
2022-12-23T07:11:32.398Z,955.79
2022-12-23T07:12:32.367Z,955.85
2022-12-23T07:13:32.326Z,955.82
2022-12-23T07:15:32.386Z,955.85
2022-12-23T07:16:32.407Z,955.83
2022-12-23T07:18:32.377Z,955.86
2022-12-23T07:20:32.352Z,955.82
2022-12-23T07:22:32.409Z,955.81
2022-12-23T07:23:32.316Z,955.85
2022-12-23T07:24:32.281Z,955.86
2022-12-23T07:25:32.355Z,955.84
2022-12-23T07:26:32.314Z,955.85
2022-12-23T07:27:32.297Z,955.87
2022-12-23T07:29:33.714Z,955.9
2022-12-23T07:30:32.401Z,955.86
2022-12-23T07:31:32.378Z,955.91
2022-12-23T07:32:32.425Z,955.85
2022-12-23T07:33:32.302Z,955.93
2022-12-23T07:35:32.307Z,955.95
2022-12-23T07:36:32.405Z,955.96
2022-12-23T07:38:32.314Z,955.97
2022-12-23T07:39:32.402Z,955.96
2022-12-23T07:40:32.615Z,955.94
2022-12-23T07:41:32.443Z,955.91
2022-12-23T07:42:44.682Z,955.94
2022-12-23T07:43:32.624Z,955.91
2022-12-23T07:45:32.561Z,955.94
2022-12-23T07:46:33.409Z,955.89
2022-12-23T07:47:32.448Z,955.9
2022-12-23T07:48:32.344Z,955.92
2022-12-23T07:49:32.344Z,955.93
2022-12-23T07:50:32.348Z,955.96
2022-12-23T07:51:32.417Z,955.97
2022-12-23T07:52:32.346Z,955.98
2022-12-23T07:53:32.351Z,955.99
2022-12-23T07:54:32.351Z,956.01
2022-12-23T07:55:32.351Z,956
2022-12-23T07:56:32.364Z,956.04
2022-12-23T07:57:32.425Z,956.06
2022-12-23T07:58:32.497Z,956.11
2022-12-23T07:59:32.463Z,956.14
2022-12-23T08:01:32.574Z,956.15
2022-12-23T08:02:32.651Z,956.18
2022-12-23T08:04:32.481Z,956.21
2022-12-23T08:05:32.472Z,956.24
2022-12-23T08:07:32.511Z,956.28
2022-12-23T08:10:33.516Z,956.3
2022-12-23T08:12:32.466Z,956.28
2022-12-23T08:13:32.396Z,956.29
2022-12-23T08:14:32.417Z,956.28
2022-12-23T08:15:32.428Z,956.23
2022-12-23T08:16:35.410Z,956.22
2022-12-23T08:17:32.610Z,956.23
2022-12-23T08:18:32.420Z,956.21
2022-12-23T08:19:32.520Z,956.2
2022-12-23T08:20:32.412Z,956.21
2022-12-23T08:22:32.537Z,956.19
2022-12-23T08:24:32.564Z,956.21
2022-12-23T08:25:32.542Z,956.23
2022-12-23T08:28:32.537Z,956.22
2022-12-23T08:29:36.139Z,956.25
2022-12-23T08:30:32.659Z,956.31
2022-12-23T08:31:32.597Z,956.28
2022-12-23T08:32:32.442Z,956.29
2022-12-23T08:33:32.584Z,956.34
2022-12-23T08:34:32.540Z,956.36
2022-12-23T08:35:32.452Z,956.37
2022-12-23T08:36:32.504Z,956.34
2022-12-23T08:37:32.545Z,956.32
2022-12-23T08:38:32.445Z,956.34
2022-12-23T08:40:32.466Z,956.38
2022-12-23T08:42:32.635Z,956.41
2022-12-23T08:43:35.935Z,956.38
2022-12-23T08:44:32.730Z,956.37
2022-12-23T08:45:32.596Z,956.35
2022-12-23T08:46:32.614Z,956.34
2022-12-23T08:47:32.532Z,956.3
2022-12-23T08:48:32.483Z,956.31
2022-12-23T08:49:40.633Z,956.4
2022-12-23T08:50:34.815Z,956.36
2022-12-23T08:52:32.491Z,956.33
2022-12-23T08:53:32.639Z,956.32
2022-12-23T08:54:32.609Z,956.31
2022-12-23T08:56:36.689Z,956.29
2022-12-23T08:57:32.499Z,956.28
2022-12-23T08:58:32.594Z,956.27
2022-12-23T08:59:32.518Z,956.25
2022-12-23T09:00:32.623Z,956.28
2022-12-23T09:01:32.703Z,956.29
2022-12-23T09:02:32.775Z,956.3
2022-12-23T09:03:32.669Z,956.32
2022-12-23T09:05:32.528Z,956.3
2022-12-23T09:06:32.616Z,956.32
2022-12-23T09:07:32.602Z,956.31
2022-12-23T09:08:32.654Z,956.36
2022-12-23T09:09:32.629Z,956.35
2022-12-23T09:10:32.531Z,956.38
2022-12-23T09:11:32.562Z,956.41
2022-12-23T09:13:35.427Z,956.44
2022-12-23T09:14:32.551Z,956.43
2022-12-23T09:15:32.592Z,956.45
2022-12-23T09:16:32.762Z,956.46
2022-12-23T09:17:32.544Z,956.49
2022-12-23T09:18:32.550Z,956.55
2022-12-23T09:19:32.735Z,956.5
2022-12-23T09:20:32.565Z,956.57
2022-12-23T09:22:32.765Z,956.54
2022-12-23T09:23:32.695Z,956.55
2022-12-23T09:25:32.723Z,956.53
2022-12-23T09:27:32.716Z,956.51
2022-12-23T09:28:32.600Z,956.54
2022-12-23T09:29:32.682Z,956.49
2022-12-23T09:31:36.452Z,956.46
2022-12-23T09:32:32.691Z,956.48
2022-12-23T09:33:32.709Z,956.49
2022-12-23T09:34:32.588Z,956.44
2022-12-23T09:35:32.699Z,956.45
2022-12-23T09:36:32.708Z,956.43
2022-12-23T09:38:32.711Z,956.46
2022-12-23T09:39:32.604Z,956.45
2022-12-23T09:40:32.597Z,956.46
2022-12-23T09:41:32.694Z,956.49
2022-12-23T09:43:32.674Z,956.51
2022-12-23T09:45:37.016Z,956.49
2022-12-23T09:46:33.093Z,956.46
2022-12-23T09:47:32.717Z,956.44
2022-12-23T09:48:32.618Z,956.4
2022-12-23T09:49:32.638Z,956.38
2022-12-23T09:50:32.715Z,956.36
2022-12-23T09:51:32.635Z,956.33
2022-12-23T09:52:32.751Z,956.36
2022-12-23T09:53:32.745Z,956.34
2022-12-23T09:54:32.697Z,956.37
2022-12-23T09:55:32.640Z,956.36
2022-12-23T09:56:32.717Z,956.35
2022-12-23T09:57:34.014Z,956.34
2022-12-23T09:58:32.763Z,956.29
2022-12-23T09:59:32.723Z,956.3
2022-12-23T10:00:32.700Z,956.31
2022-12-23T10:01:32.939Z,956.25
2022-12-23T10:02:32.881Z,956.24
2022-12-23T10:03:34.314Z,956.21
2022-12-23T10:04:32.857Z,956.22
2022-12-23T10:05:32.742Z,956.3
2022-12-23T10:06:32.672Z,956.25
2022-12-23T10:07:32.771Z,956.23
2022-12-23T10:08:32.747Z,956.24
2022-12-23T10:09:32.814Z,956.22
2022-12-23T10:10:32.776Z,956.21
2022-12-23T10:11:32.672Z,956.22
2022-12-23T10:12:37.487Z,956.23
2022-12-23T10:13:32.937Z,956.21
2022-12-23T10:14:32.747Z,956.23
2022-12-23T10:15:32.823Z,956.18
2022-12-23T10:16:32.843Z,956.24
2022-12-23T10:17:32.862Z,956.23
2022-12-23T10:18:32.821Z,956.22
2022-12-23T10:19:32.695Z,956.2
2022-12-23T10:20:32.753Z,956.19
2022-12-23T10:21:32.702Z,956.21
2022-12-23T10:22:32.796Z,956.19
2022-12-23T10:23:32.888Z,956.16
2022-12-23T10:24:32.849Z,956.13
2022-12-23T10:25:32.788Z,956.08
2022-12-23T10:26:32.726Z,956.06
2022-12-23T10:27:32.719Z,956.09
2022-12-23T10:28:32.716Z,956.04
2022-12-23T10:29:33.710Z,956.05
2022-12-23T10:31:40.077Z,956.01
2022-12-23T10:32:33.023Z,956
2022-12-23T10:34:38.209Z,956.01
2022-12-23T10:35:32.785Z,955.99
2022-12-23T10:36:32.803Z,955.97
2022-12-23T10:37:32.741Z,955.99
2022-12-23T10:39:32.824Z,955.97
2022-12-23T10:40:32.839Z,956
2022-12-23T10:41:32.892Z,955.98
2022-12-23T10:42:32.765Z,955.97
2022-12-23T10:43:32.825Z,955.95
2022-12-23T10:44:33.799Z,955.96
2022-12-23T10:45:32.786Z,955.92
2022-12-23T10:46:32.887Z,955.94
2022-12-23T10:47:32.912Z,955.89
2022-12-23T10:48:33.022Z,955.91
2022-12-23T10:49:33.819Z,955.9
2022-12-23T10:50:32.784Z,955.88
2022-12-23T10:51:32.880Z,955.8
2022-12-23T10:52:32.846Z,955.82
2022-12-23T10:53:32.810Z,955.75
2022-12-23T10:54:32.876Z,955.72
2022-12-23T10:57:32.796Z,955.71
2022-12-23T10:58:32.852Z,955.72
2022-12-23T10:59:32.798Z,955.73
2022-12-23T11:00:32.943Z,955.76
2022-12-23T11:01:33.061Z,955.74
2022-12-23T11:02:33.162Z,955.79
2022-12-23T11:03:33.092Z,955.82
2022-12-23T11:04:32.962Z,955.76
2022-12-23T11:05:32.923Z,955.75
2022-12-23T11:06:37.013Z,955.76
2022-12-23T11:07:45.296Z,955.75
2022-12-23T11:08:32.933Z,955.71
2022-12-23T11:09:32.822Z,955.74
2022-12-23T11:10:32.895Z,955.7
2022-12-23T11:13:32.989Z,955.68
2022-12-23T11:14:32.968Z,955.65
2022-12-23T11:15:32.879Z,955.6
2022-12-23T11:16:33.020Z,955.61
2022-12-23T11:17:32.846Z,955.58
2022-12-23T11:19:32.896Z,955.53
2022-12-23T11:20:32.970Z,955.48
2022-12-23T11:21:32.924Z,955.51
2022-12-23T11:22:32.858Z,955.5
2022-12-23T11:23:32.953Z,955.48
2022-12-23T11:24:36.778Z,955.44
2022-12-23T11:26:32.961Z,955.46
2022-12-23T11:27:32.924Z,955.47
2022-12-23T11:28:32.897Z,955.52
2022-12-23T11:29:32.957Z,955.53
2022-12-23T11:30:32.891Z,955.55
2022-12-23T11:31:32.936Z,955.57
2022-12-23T11:32:32.907Z,955.52
2022-12-23T11:33:32.937Z,955.5
2022-12-23T11:34:32.998Z,955.46
2022-12-23T11:35:32.995Z,955.53
2022-12-23T11:36:32.886Z,955.48
2022-12-23T11:37:33.011Z,955.49
2022-12-23T11:38:33.006Z,955.48
2022-12-23T11:39:32.921Z,955.51
2022-12-23T11:41:32.977Z,955.52
2022-12-23T11:42:32.973Z,955.5
2022-12-23T11:43:33.007Z,955.49
2022-12-23T11:44:32.904Z,955.48
2022-12-23T11:46:33.125Z,955.43
2022-12-23T11:47:33.014Z,955.42
2022-12-23T11:51:33.150Z,955.37
2022-12-23T11:52:33.048Z,955.38
2022-12-23T11:53:32.996Z,955.33
2022-12-23T11:54:32.966Z,955.34
2022-12-23T11:55:33.067Z,955.35
2022-12-23T11:56:33.067Z,955.32
2022-12-23T11:57:33.068Z,955.27
2022-12-23T11:58:33.050Z,955.24
2022-12-23T11:59:33.107Z,955.26
2022-12-23T12:00:32.955Z,955.25
2022-12-23T12:01:33.045Z,955.22
2022-12-23T12:02:33.022Z,955.19
2022-12-23T12:03:33.066Z,955.26
2022-12-23T12:04:33.042Z,955.25
2022-12-23T12:05:32.977Z,955.26
2022-12-23T12:06:33.078Z,955.24
2022-12-23T12:07:32.987Z,955.25
2022-12-23T12:08:32.987Z,955.21
2022-12-23T12:09:33.084Z,955.22
2022-12-23T12:10:33.051Z,955.23
2022-12-23T12:11:33.124Z,955.17
2022-12-23T12:12:33.124Z,955.21
2022-12-23T12:13:32.976Z,955.23
2022-12-23T12:14:32.995Z,955.22
2022-12-23T12:15:33.087Z,955.19
2022-12-23T12:16:33.086Z,955.17
2022-12-23T12:17:34.329Z,955.21
2022-12-23T12:18:33.088Z,955.23
2022-12-23T12:19:33.004Z,955.24
2022-12-23T12:21:33.092Z,955.22
2022-12-23T12:22:33.067Z,955.21
2022-12-23T12:23:33.050Z,955.24
2022-12-23T12:24:33.112Z,955.23
2022-12-23T12:25:36.420Z,955.29
2022-12-23T12:26:33.142Z,955.26
2022-12-23T12:27:33.102Z,955.25
2022-12-23T12:28:33.070Z,955.23
2022-12-23T12:29:33.144Z,955.27
2022-12-23T12:30:33.336Z,955.25
2022-12-23T12:31:33.016Z,955.26
2022-12-23T12:32:33.032Z,955.24
2022-12-23T12:34:33.212Z,955.23
2022-12-23T12:36:33.156Z,955.2
2022-12-23T12:37:34.468Z,955.21
2022-12-23T12:38:33.044Z,955.22
2022-12-23T12:40:33.110Z,955.2
2022-12-23T12:41:33.161Z,955.18
2022-12-23T12:42:33.049Z,955.17
2022-12-23T12:44:33.164Z,955.18
2022-12-23T12:45:33.170Z,955.17
2022-12-23T12:46:33.235Z,955.14
2022-12-23T12:47:53.628Z,955.12
2022-12-23T12:48:33.135Z,955.13
2022-12-23T12:49:33.087Z,955.11
2022-12-23T12:50:33.195Z,955.09
2022-12-23T12:51:33.074Z,955.14
2022-12-23T12:52:33.063Z,955.16
2022-12-23T12:53:33.218Z,955.17
2022-12-23T12:54:33.153Z,955.15
2022-12-23T12:55:33.153Z,955.18
2022-12-23T12:56:33.175Z,955.17
2022-12-23T12:57:33.147Z,955.18
2022-12-23T12:58:33.227Z,955.17
2022-12-23T13:02:33.433Z,955.13
2022-12-23T13:03:33.289Z,955.1
2022-12-23T13:04:33.105Z,955.09
2022-12-23T13:05:33.117Z,955.07
2022-12-23T13:06:33.257Z,955.06
2022-12-23T13:08:33.207Z,955.01
2022-12-23T13:09:33.115Z,954.99
2022-12-23T13:10:33.229Z,954.97
2022-12-23T13:11:33.203Z,954.95
2022-12-23T13:12:33.168Z,954.97
2022-12-23T13:15:33.167Z,954.94
2022-12-23T13:16:33.277Z,954.99
2022-12-23T13:18:33.224Z,954.96
2022-12-23T13:19:33.152Z,955
2022-12-23T13:20:33.224Z,954.99
2022-12-23T13:21:33.190Z,954.96
2022-12-23T13:22:33.252Z,954.93
2022-12-23T13:23:43.207Z,954.91
2022-12-23T13:24:33.155Z,954.92
2022-12-23T13:25:33.242Z,954.87
2022-12-23T13:26:33.225Z,954.88
2022-12-23T13:27:33.353Z,954.84
2022-12-23T13:28:33.285Z,954.82
2022-12-23T13:29:33.221Z,954.8
2022-12-23T13:30:33.235Z,954.81
2022-12-23T13:31:33.286Z,954.78
2022-12-23T13:32:37.313Z,954.83
2022-12-23T13:33:33.236Z,954.78
2022-12-23T13:34:33.313Z,954.84
2022-12-23T13:35:33.197Z,954.8
2022-12-23T13:36:33.384Z,954.82
2022-12-23T13:38:33.351Z,954.79
2022-12-23T13:39:33.190Z,954.78
2022-12-23T13:40:33.279Z,954.83
2022-12-23T13:41:33.255Z,954.8
2022-12-23T13:42:33.309Z,954.81
2022-12-23T13:44:33.288Z,954.8
2022-12-23T13:45:33.358Z,954.78
2022-12-23T13:46:33.335Z,954.74
2022-12-23T13:47:33.237Z,954.76
2022-12-23T13:48:33.218Z,954.79
2022-12-23T13:49:33.285Z,954.76
2022-12-23T13:50:33.355Z,954.74
2022-12-23T13:51:33.309Z,954.72
2022-12-23T13:52:33.305Z,954.71
2022-12-23T13:53:33.259Z,954.72
2022-12-23T13:54:33.332Z,954.71
2022-12-23T13:55:33.287Z,954.77
2022-12-23T13:56:33.376Z,954.73
2022-12-23T13:57:33.233Z,954.74
2022-12-23T13:58:33.318Z,954.77
2022-12-23T13:59:33.236Z,954.76
2022-12-23T14:00:33.371Z,954.77
2022-12-23T14:01:33.385Z,954.76
2022-12-23T14:02:33.279Z,954.71
2022-12-23T14:03:33.335Z,954.8
2022-12-23T14:04:33.293Z,954.82
2022-12-23T14:05:33.261Z,954.85
2022-12-23T14:06:33.343Z,954.87
2022-12-23T14:07:33.419Z,954.91
2022-12-23T14:08:33.265Z,954.92
2022-12-23T14:09:33.287Z,955
2022-12-23T14:10:33.426Z,954.94
2022-12-23T14:11:33.377Z,954.96
2022-12-23T14:12:33.272Z,954.97
2022-12-23T14:13:33.427Z,955.05
2022-12-23T14:14:33.387Z,955.06
2022-12-23T14:15:33.293Z,955.08
2022-12-23T14:16:33.424Z,955.07
2022-12-23T14:18:33.367Z,955.04
2022-12-23T14:19:34.536Z,955.03
2022-12-23T14:21:33.342Z,955.02
2022-12-23T14:22:33.292Z,954.99
2022-12-23T14:23:33.300Z,955.02
2022-12-23T14:25:33.439Z,955.04
2022-12-23T14:26:33.308Z,955.07
2022-12-23T14:27:33.369Z,955.05
2022-12-23T14:28:33.307Z,955.06